createdAt,value
2018-12-24T00:01:17.193Z,100.00
2018-12-24T00:04:05.515Z,100.00
2018-12-24T00:06:46.403Z,100.00
2018-12-24T00:09:34.892Z,100.00
2018-12-24T00:12:17.882Z,100.00
2018-12-24T00:15:06.547Z,100.00
2018-12-24T00:17:47.763Z,100.00
2018-12-24T00:20:36.150Z,100.00
2018-12-24T00:23:17.791Z,100.00
2018-12-24T00:26:06.127Z,100.00
2018-12-24T00:28:46.858Z,100.00
2018-12-24T00:31:35.766Z,100.00
2018-12-24T00:34:16.696Z,100.00
2018-12-24T00:37:04.905Z,100.00
2018-12-24T00:39:45.793Z,100.00
2018-12-24T00:42:34.400Z,100.00
2018-12-24T00:45:15.791Z,100.00
2018-12-24T00:48:04.063Z,100.00
2018-12-24T00:50:47.426Z,100.00
2018-12-24T00:53:35.745Z,100.00
2018-12-24T00:56:20.107Z,100.00
2018-12-24T00:59:08.674Z,100.00
2018-12-24T01:01:49.530Z,100.00
2018-12-24T01:04:37.816Z,100.00
2018-12-24T01:07:19.624Z,100.00
2018-12-24T01:10:07.948Z,100.00
2018-12-24T01:12:49.558Z,100.00
2018-12-24T01:15:38.448Z,100.00
2018-12-24T01:18:21.254Z,100.00
2018-12-24T01:21:09.650Z,100.00
2018-12-24T01:23:50.721Z,100.00
2018-12-24T01:26:38.997Z,100.00
2018-12-24T01:29:08.242Z,100.00
2018-12-24T01:31:37.429Z,100.00
2018-12-24T01:34:18.689Z,100.00
2018-12-24T01:37:06.970Z,100.00
2018-12-24T01:39:48.734Z,100.00
2018-12-24T01:42:36.989Z,100.00
2018-12-24T01:45:37.697Z,100.00
2018-12-24T01:48:26.354Z,100.00
2018-12-24T01:51:07.432Z,100.00
2018-12-24T01:53:55.744Z,100.00
2018-12-24T01:56:39.098Z,100.00
2018-12-24T01:59:27.662Z,100.00
2018-12-24T02:02:09.471Z,100.00
2018-12-24T02:04:58.362Z,100.00
2018-12-24T02:07:39.106Z,100.00
2018-12-24T02:10:27.528Z,100.00
2018-12-24T02:13:09.053Z,100.00
2018-12-24T02:15:57.554Z,100.00
2018-12-24T02:18:38.681Z,100.00
2018-12-24T02:21:26.986Z,100.00
2018-12-24T02:24:10.429Z,100.00
2018-12-24T02:26:58.862Z,100.00
2018-12-24T02:29:40.364Z,100.00
2018-12-24T02:32:28.329Z,100.00
2018-12-24T02:35:10.078Z,100.00
2018-12-24T02:37:58.396Z,100.00
2018-12-24T02:40:39.830Z,100.00
2018-12-24T02:43:28.144Z,100.00
2018-12-24T02:46:09.656Z,100.00
2018-12-24T02:48:58.321Z,100.00
2018-12-24T02:51:39.815Z,100.00
2018-12-24T02:54:21.186Z,100.00
2018-12-24T02:57:02.857Z,100.00
2018-12-24T02:59:44.381Z,100.00
2018-12-24T03:02:33.175Z,100.00
2018-12-24T03:05:14.065Z,100.00
2018-12-24T03:08:02.351Z,100.00
2018-12-24T03:10:43.855Z,100.00
2018-12-24T03:13:32.205Z,100.00
2018-12-24T03:16:13.688Z,100.00
2018-12-24T03:19:02.059Z,100.00
2018-12-24T03:21:43.927Z,100.00
2018-12-24T03:24:25.359Z,100.00
2018-12-24T03:27:06.684Z,100.00
2018-12-24T03:29:55.081Z,100.00
2018-12-24T03:32:36.641Z,100.00
2018-12-24T03:35:25.347Z,100.00
2018-12-24T03:38:06.732Z,100.00
2018-12-24T03:44:22.967Z,100.00
2018-12-24T03:47:04.281Z,100.00
2018-12-24T03:49:45.812Z,100.00
2018-12-24T03:52:34.658Z,100.00
2018-12-24T03:55:15.817Z,100.00
2018-12-24T03:58:04.166Z,100.00
2018-12-24T04:00:46.829Z,100.00
2018-12-24T04:03:35.802Z,100.00
2018-12-24T04:06:17.106Z,100.00
2018-12-24T04:09:06.127Z,100.00
2018-12-24T04:11:47.049Z,100.00
2018-12-24T04:14:35.411Z,100.00
2018-12-24T04:17:16.614Z,100.00
2018-12-24T04:20:05.157Z,100.00
2018-12-24T04:22:46.520Z,100.00
2018-12-24T04:25:40.108Z,100.00
2018-12-24T04:28:21.718Z,100.00
2018-12-24T04:31:10.112Z,100.00
2018-12-24T04:33:51.434Z,100.00
2018-12-24T04:36:41.277Z,100.00
2018-12-24T04:39:22.182Z,100.00
2018-12-24T04:42:10.462Z,100.00
2018-12-24T04:44:53.227Z,100.00
2018-12-24T04:47:41.650Z,100.00
2018-12-24T04:50:22.970Z,100.00
2018-12-24T04:53:11.442Z,100.00
2018-12-24T04:55:53.157Z,100.00
2018-12-24T04:58:42.891Z,100.00
2018-12-24T05:01:24.063Z,100.00
2018-12-24T05:04:12.515Z,100.00
2018-12-24T05:06:54.210Z,100.00
2018-12-24T05:09:43.241Z,100.00
2018-12-24T05:12:24.287Z,100.00
2018-12-24T05:15:12.655Z,100.00
2018-12-24T05:18:00.500Z,100.00
2018-12-24T05:20:48.936Z,100.00
2018-12-24T05:23:30.581Z,100.00
2018-12-24T05:26:19.034Z,99.83
2018-12-24T05:29:00.237Z,99.57
2018-12-24T05:31:48.856Z,99.53
2018-12-24T05:34:30.797Z,99.57
2018-12-24T05:37:19.142Z,99.46
2018-12-24T05:40:00.703Z,99.52
2018-12-24T05:42:49.147Z,99.33
2018-12-24T05:45:30.905Z,99.36
2018-12-24T05:48:22.199Z,99.66
2018-12-24T05:51:03.847Z,99.70
2018-12-24T05:53:52.532Z,99.77
2018-12-24T05:56:35.431Z,99.74
2018-12-24T05:59:23.716Z,98.93
2018-12-24T06:02:05.468Z,98.57
2018-12-24T06:04:53.838Z,97.75
2018-12-24T06:07:35.532Z,97.93
2018-12-24T06:10:23.933Z,97.89
2018-12-24T06:13:05.102Z,94.74
2018-12-24T06:15:53.478Z,92.87
2018-12-24T06:18:34.915Z,93.10
2018-12-24T06:21:23.254Z,91.72
2018-12-24T06:24:04.866Z,92.31
2018-12-24T06:26:53.365Z,91.96
2018-12-24T06:29:34.663Z,91.81
2018-12-24T06:32:22.985Z,92.19
2018-12-24T06:35:06.318Z,90.31
2018-12-24T06:37:54.676Z,88.96
2018-12-24T06:40:36.502Z,88.73
2018-12-24T06:43:24.917Z,88.26
2018-12-24T06:46:06.166Z,87.08
2018-12-24T06:48:35.400Z,87.43
2018-12-24T06:51:16.955Z,87.20
2018-12-24T06:54:05.370Z,86.71
2018-12-24T06:56:46.294Z,86.33
2018-12-24T06:59:34.735Z,86.05
2018-12-24T07:02:15.606Z,87.31
2018-12-24T07:05:04.554Z,87.55
2018-12-24T07:07:45.776Z,88.04
2018-12-24T07:10:34.061Z,88.05
2018-12-24T07:13:15.252Z,88.37
2018-12-24T07:16:03.573Z,88.18
2018-12-24T07:18:44.970Z,88.58
2018-12-24T07:21:33.379Z,88.38
2018-12-24T07:24:14.885Z,88.36
2018-12-24T07:27:03.434Z,88.56
2018-12-24T07:29:45.115Z,88.83
2018-12-24T07:32:33.602Z,88.92
2018-12-24T07:35:14.872Z,87.75
2018-12-24T07:38:03.208Z,88.48
2018-12-24T07:40:45.863Z,87.54
2018-12-24T07:43:34.264Z,87.23
2018-12-24T07:46:16.399Z,86.83
2018-12-24T07:49:04.724Z,87.88
2018-12-24T07:51:46.172Z,87.37
2018-12-24T07:54:34.657Z,87.29
2018-12-24T07:57:16.115Z,87.08
2018-12-24T08:00:04.712Z,88.33
2018-12-24T08:02:46.377Z,86.59
2018-12-24T08:05:34.892Z,87.27
2018-12-24T08:08:16.306Z,87.15
2018-12-24T08:11:04.651Z,86.49
2018-12-24T08:13:48.217Z,86.95
2018-12-24T08:16:36.636Z,85.59
2018-12-24T08:19:17.789Z,85.84
2018-12-24T08:21:46.908Z,86.34
2018-12-24T08:24:28.900Z,86.20
2018-12-24T08:27:17.440Z,86.41
2018-12-24T08:29:58.578Z,86.23
2018-12-24T08:32:47.012Z,86.65
2018-12-24T08:35:28.491Z,85.82
2018-12-24T08:38:17.114Z,86.31
2018-12-24T08:40:59.077Z,86.52
2018-12-24T08:43:47.626Z,85.78
2018-12-24T08:46:27.362Z,86.27
2018-12-24T08:49:16.160Z,86.50
2018-12-24T08:51:57.497Z,87.29
2018-12-24T08:54:46.461Z,86.22
2018-12-24T08:57:25.957Z,86.82
2018-12-24T09:00:14.356Z,86.64
2018-12-24T09:02:57.725Z,86.19
2018-12-24T09:05:46.249Z,86.72
2018-12-24T09:08:27.511Z,88.90
2018-12-24T09:11:16.520Z,88.36
2018-12-24T09:13:57.686Z,87.73
2018-12-24T09:16:26.698Z,86.37
2018-12-24T09:18:56.485Z,84.85
2018-12-24T09:21:45.031Z,85.41
2018-12-24T09:24:27.021Z,86.54
2018-12-24T09:27:15.356Z,85.97
2018-12-24T09:29:56.720Z,86.07
2018-12-24T09:32:45.213Z,85.80
2018-12-24T09:35:24.761Z,84.99
2018-12-24T09:38:13.193Z,84.07
2018-12-24T09:40:55.043Z,84.13
2018-12-24T09:43:44.131Z,85.37
2018-12-24T09:46:25.730Z,84.31
2018-12-24T09:49:14.155Z,84.25
2018-12-24T09:51:55.821Z,83.20
2018-12-24T09:54:44.220Z,83.39
2018-12-24T09:57:25.925Z,83.82
2018-12-24T10:00:16.276Z,83.23
2018-12-24T10:02:59.559Z,83.95
2018-12-24T10:05:48.503Z,83.31
2018-12-24T10:08:30.182Z,83.36
2018-12-24T10:11:18.617Z,82.76
2018-12-24T10:13:59.843Z,81.69
2018-12-24T10:16:48.254Z,82.57
2018-12-24T10:19:29.311Z,82.37
2018-12-24T10:21:58.662Z,82.55
2018-12-24T10:24:39.743Z,82.37
2018-12-24T10:27:28.176Z,81.71
2018-12-24T10:30:09.576Z,82.26
2018-12-24T10:32:57.989Z,81.81
2018-12-24T10:35:39.741Z,81.90
2018-12-24T10:38:28.132Z,81.63
2018-12-24T10:41:11.379Z,81.25
2018-12-24T10:44:00.284Z,81.38
2018-12-24T10:46:42.296Z,81.45
2018-12-24T10:49:30.678Z,81.06
2018-12-24T10:52:12.235Z,80.61
2018-12-24T10:55:00.551Z,80.13
2018-12-24T10:57:41.818Z,79.90
2018-12-24T11:00:30.419Z,80.05
2018-12-24T11:03:11.844Z,79.46
2018-12-24T11:06:00.270Z,80.05
2018-12-24T11:08:43.474Z,80.67
2018-12-24T11:11:32.592Z,81.14
2018-12-24T11:14:13.968Z,80.95
2018-12-24T11:17:02.514Z,80.54
2018-12-24T11:19:43.884Z,80.47
2018-12-24T11:22:32.504Z,80.94
2018-12-24T11:25:15.290Z,81.28
2018-12-24T11:28:03.839Z,80.54
2018-12-24T11:30:45.419Z,80.25
2018-12-24T11:33:33.697Z,80.33
2018-12-24T11:36:14.998Z,80.10
2018-12-24T11:42:31.266Z,79.34
2018-12-24T11:45:14.834Z,79.43
2018-12-24T11:47:58.059Z,81.60
2018-12-24T11:50:47.287Z,82.01
2018-12-24T11:53:28.906Z,81.29
2018-12-24T11:56:17.518Z,81.50
2018-12-24T11:59:00.585Z,82.55
2018-12-24T12:01:48.778Z,81.28
2018-12-24T12:04:29.784Z,80.74
2018-12-24T12:07:18.355Z,81.42
2018-12-24T12:10:00.350Z,81.87
2018-12-24T12:12:48.776Z,81.51
2018-12-24T12:15:29.915Z,81.87
2018-12-24T12:18:18.562Z,81.17
2018-12-24T12:21:00.012Z,81.34
2018-12-24T12:23:49.153Z,82.10
2018-12-24T12:26:30.385Z,81.29
2018-12-24T12:29:19.131Z,80.53
2018-12-24T12:32:00.020Z,79.44
2018-12-24T12:34:48.404Z,79.10
2018-12-24T12:37:27.792Z,79.76
2018-12-24T12:40:16.360Z,80.12
2018-12-24T12:42:58.002Z,80.86
2018-12-24T12:45:51.257Z,79.55
2018-12-24T12:48:49.604Z,80.10
2018-12-24T12:51:38.751Z,79.94
2018-12-24T12:54:20.300Z,80.91
2018-12-24T12:57:08.797Z,80.76
2018-12-24T12:59:50.495Z,80.47
2018-12-24T13:02:39.065Z,80.40
2018-12-24T13:05:20.567Z,80.25
2018-12-24T13:08:08.857Z,80.67
2018-12-24T13:10:38.274Z,81.64
2018-12-24T13:13:07.418Z,81.78
2018-12-24T13:15:49.657Z,81.28
2018-12-24T13:18:38.035Z,81.90
2018-12-24T13:21:19.129Z,80.12
2018-12-24T13:24:07.607Z,79.92
2018-12-24T13:26:48.607Z,79.97
2018-12-24T13:29:37.368Z,80.50
2018-12-24T13:32:20.515Z,80.68
2018-12-24T13:35:09.030Z,81.42
2018-12-24T13:37:50.769Z,82.54
2018-12-24T13:40:39.349Z,81.43
2018-12-24T13:43:22.097Z,82.19
2018-12-24T13:45:51.238Z,81.99
2018-12-24T13:48:32.379Z,81.91
2018-12-24T13:51:20.705Z,83.18
2018-12-24T13:54:01.745Z,83.02
2018-12-24T13:56:50.513Z,84.27
2018-12-24T13:59:31.932Z,84.50
2018-12-24T14:02:20.345Z,84.65
2018-12-24T14:05:02.012Z,85.54
2018-12-24T14:07:50.428Z,86.83
2018-12-24T14:10:32.098Z,87.31
2018-12-24T14:13:20.841Z,88.03
2018-12-24T14:16:02.436Z,88.10
2018-12-24T14:18:51.311Z,88.56
2018-12-24T14:21:32.704Z,88.99
2018-12-24T14:24:21.194Z,90.13
2018-12-24T14:27:02.510Z,89.24
2018-12-24T14:29:50.917Z,89.68
2018-12-24T14:32:31.869Z,90.32
2018-12-24T14:35:20.268Z,91.14
2018-12-24T14:38:01.246Z,91.37
2018-12-24T14:40:49.728Z,91.81
2018-12-24T14:43:31.068Z,92.22
2018-12-24T14:46:25.550Z,92.82
2018-12-24T14:49:09.606Z,93.00
2018-12-24T14:51:59.047Z,93.15
2018-12-24T14:54:40.936Z,93.88
2018-12-24T14:57:29.347Z,95.04
2018-12-24T15:00:10.975Z,95.21
2018-12-24T15:02:59.400Z,95.57
2018-12-24T15:05:40.193Z,95.70
2018-12-24T15:08:28.534Z,96.23
2018-12-24T15:11:10.199Z,96.79
2018-12-24T15:13:58.593Z,96.78
2018-12-24T15:16:40.053Z,96.69
2018-12-24T15:19:09.969Z,96.44
2018-12-24T15:21:51.019Z,96.97
2018-12-24T15:24:39.372Z,96.22
2018-12-24T15:27:20.843Z,96.23
2018-12-24T15:30:09.453Z,96.50
2018-12-24T15:32:50.932Z,96.41
2018-12-24T15:35:39.456Z,96.79
2018-12-24T15:38:20.686Z,96.75
2018-12-24T15:41:09.299Z,96.91
2018-12-24T15:43:50.688Z,97.80
2018-12-24T15:46:42.741Z,97.62
2018-12-24T15:49:26.481Z,97.80
2018-12-24T15:51:55.688Z,98.72
2018-12-24T15:54:37.307Z,98.71
2018-12-24T15:57:25.749Z,98.72
2018-12-24T16:00:08.006Z,98.13
2018-12-24T16:02:56.357Z,97.54
2018-12-24T16:05:39.542Z,97.58
2018-12-24T16:08:28.767Z,98.00
2018-12-24T16:11:10.509Z,98.07
2018-12-24T16:13:58.910Z,98.27
2018-12-24T16:16:40.545Z,98.36
2018-12-24T16:19:29.564Z,98.10
2018-12-24T16:22:11.329Z,98.28
2018-12-24T16:24:59.907Z,98.16
2018-12-24T16:27:41.250Z,97.98
2018-12-24T16:30:29.896Z,98.04
2018-12-24T16:33:11.344Z,99.05
2018-12-24T16:35:40.377Z,99.38
2018-12-24T16:38:21.483Z,99.28
2018-12-24T16:41:09.999Z,99.54
2018-12-24T16:43:51.216Z,99.95
2018-12-24T16:46:39.986Z,100.00
2018-12-24T16:49:20.988Z,100.00
2018-12-24T16:52:09.313Z,100.00
2018-12-24T16:54:52.312Z,100.00
2018-12-24T16:57:41.322Z,100.00
2018-12-24T17:00:43.680Z,100.00
2018-12-24T17:03:32.088Z,100.00
2018-12-24T17:06:13.776Z,100.00
2018-12-24T17:09:02.249Z,100.00
2018-12-24T17:11:46.347Z,100.00
2018-12-24T17:14:34.884Z,100.00
2018-12-24T17:17:15.784Z,100.00
2018-12-24T17:20:04.311Z,100.00
2018-12-24T17:22:45.848Z,100.00
2018-12-24T17:25:34.257Z,100.00
2018-12-24T17:28:15.701Z,100.00
2018-12-24T17:31:04.113Z,100.00
2018-12-24T17:33:45.849Z,100.00
2018-12-24T17:36:34.470Z,100.00
2018-12-24T17:39:15.608Z,100.00
2018-12-24T17:42:03.971Z,100.00
2018-12-24T17:44:45.673Z,100.00
2018-12-24T17:47:27.193Z,100.00
2018-12-24T17:50:08.426Z,100.00
2018-12-24T17:52:56.735Z,100.00
2018-12-24T17:55:37.917Z,100.00
2018-12-24T17:58:26.394Z,100.00
2018-12-24T18:01:09.778Z,100.00
2018-12-24T18:03:58.197Z,100.00
2018-12-24T18:06:39.177Z,100.00
2018-12-24T18:09:27.634Z,100.00
2018-12-24T18:12:08.875Z,100.00
2018-12-24T18:14:57.317Z,99.83
2018-12-24T18:17:39.026Z,98.84
2018-12-24T18:20:27.557Z,97.97
2018-12-24T18:23:08.388Z,97.46
2018-12-24T18:25:56.807Z,96.63
2018-12-24T18:28:37.547Z,96.43
2018-12-24T18:31:26.306Z,95.82
2018-12-24T18:34:07.308Z,94.95
2018-12-24T18:36:55.764Z,94.71
2018-12-24T18:39:37.800Z,94.83
2018-12-24T18:42:26.357Z,94.35
2018-12-24T18:45:07.912Z,93.96
2018-12-24T18:47:49.775Z,94.09
2018-12-24T18:50:32.493Z,93.32
2018-12-24T18:53:21.066Z,93.25
2018-12-24T18:56:04.312Z,93.12
2018-12-24T18:58:52.847Z,93.45
2018-12-24T19:01:34.641Z,93.07
2018-12-24T19:04:23.799Z,92.55
2018-12-24T19:07:04.958Z,92.51
2018-12-24T19:09:53.382Z,92.43
2018-12-24T19:12:35.124Z,92.93
2018-12-24T19:15:23.760Z,92.40
2018-12-24T19:18:06.865Z,92.85
2018-12-24T19:20:55.551Z,93.21
2018-12-24T19:23:37.141Z,93.61
2018-12-24T19:26:25.724Z,93.73
2018-12-24T19:29:06.779Z,94.39
2018-12-24T19:31:55.497Z,94.53
2018-12-24T19:34:36.910Z,94.61
2018-12-24T19:37:25.588Z,94.86
2018-12-24T19:40:07.549Z,94.88
2018-12-24T19:42:56.015Z,95.36
2018-12-24T19:45:38.596Z,95.16
2018-12-24T19:48:20.120Z,95.07
2018-12-24T19:51:01.532Z,94.88
2018-12-24T19:53:43.356Z,94.95
2018-12-24T19:56:31.877Z,94.70
2018-12-24T19:59:13.234Z,94.58
2018-12-24T20:02:02.277Z,94.25
2018-12-24T20:04:44.125Z,93.60
2018-12-24T20:07:32.624Z,92.82
2018-12-24T20:10:13.800Z,93.73
2018-12-24T20:13:02.497Z,92.63
2018-12-24T20:15:43.795Z,92.33
2018-12-24T20:18:32.082Z,91.91
2018-12-24T20:21:15.916Z,91.88
2018-12-24T20:24:04.457Z,92.10
2018-12-24T20:26:46.592Z,91.41
2018-12-24T20:29:34.992Z,91.97
2018-12-24T20:32:04.890Z,91.77
2018-12-24T20:34:45.931Z,91.75
2018-12-24T20:37:34.775Z,91.85
2018-12-24T20:40:16.080Z,92.57
2018-12-24T20:43:04.682Z,92.36
2018-12-24T20:45:48.195Z,92.76
2018-12-24T20:48:29.009Z,92.49
2018-12-24T20:51:16.067Z,93.16
2018-12-24T20:54:01.479Z,92.94
2018-12-24T20:56:30.669Z,92.15
2018-12-24T20:59:19.438Z,92.18
2018-12-24T21:01:59.004Z,91.63
2018-12-24T21:04:47.386Z,91.76
2018-12-24T21:07:29.257Z,90.79
2018-12-24T21:10:17.561Z,89.86
2018-12-24T21:12:58.321Z,89.91
2018-12-24T21:15:46.734Z,89.44
2018-12-24T21:18:29.774Z,89.49
2018-12-24T21:24:46.497Z,89.49
2018-12-24T21:27:28.221Z,89.20
2018-12-24T21:30:09.688Z,89.13
2018-12-24T21:32:58.187Z,89.20
2018-12-24T21:35:40.057Z,89.76
2018-12-24T21:38:29.198Z,89.28
2018-12-24T21:41:10.909Z,89.54
2018-12-24T21:43:59.365Z,88.92
2018-12-24T21:46:41.282Z,89.10
2018-12-24T21:49:22.923Z,88.80
2018-12-24T21:52:04.643Z,89.24
2018-12-24T21:54:52.922Z,89.83
2018-12-24T21:57:34.923Z,89.45
2018-12-24T22:00:23.457Z,89.43
2018-12-24T22:03:05.033Z,89.15
2018-12-24T22:05:53.589Z,89.77
2018-12-24T22:08:34.474Z,89.53
2018-12-24T22:11:22.929Z,90.29
2018-12-24T22:14:04.584Z,89.76
2018-12-24T22:16:53.222Z,89.60
2018-12-24T22:19:35.209Z,89.31
2018-12-24T22:22:23.939Z,89.80
2018-12-24T22:25:05.006Z,89.21
2018-12-24T22:27:53.407Z,89.45
2018-12-24T22:30:34.588Z,89.48
2018-12-24T22:33:23.004Z,89.09
2018-12-24T22:36:04.152Z,89.40
2018-12-24T22:38:52.496Z,88.88
2018-12-24T22:41:34.263Z,88.87
2018-12-24T22:44:22.914Z,88.86
2018-12-24T22:47:03.931Z,88.93
2018-12-24T22:49:45.815Z,88.81
2018-12-24T22:52:27.036Z,88.77
2018-12-24T22:55:15.543Z,88.92
2018-12-24T22:57:57.226Z,89.38
2018-12-24T23:04:33.241Z,89.67
2018-12-24T23:07:16.153Z,89.20
2018-12-24T23:09:57.719Z,89.70
2018-12-24T23:12:45.934Z,89.64
2018-12-24T23:15:27.374Z,90.24
2018-12-24T23:18:15.905Z,89.79
2018-12-24T23:20:56.945Z,90.16
2018-12-24T23:23:45.405Z,90.15
2018-12-24T23:26:26.405Z,90.16
2018-12-24T23:29:14.786Z,89.93
2018-12-24T23:31:56.245Z,90.33
2018-12-24T23:34:44.732Z,90.63
2018-12-24T23:37:25.669Z,90.51
2018-12-24T23:40:14.186Z,90.74
2018-12-24T23:42:55.743Z,90.95
2018-12-24T23:45:44.185Z,91.07
2018-12-24T23:48:26.151Z,91.91
2018-12-24T23:51:15.692Z,92.02
2018-12-24T23:53:56.495Z,92.22
2018-12-24T23:56:44.691Z,91.96
2018-12-24T23:59:24.190Z,92.23
